Time;durP1;ratioP1;P1;durP2;ratioP2;P2;SDS_P1;SDS_P2;PMS_P1;PMS_P2;Temp;Humidity;BMP_temperature;BMP_pressure;BME280_temperature;BME280_humidity;BME280_pressure;Samples;Min_cycle;Max_cycle;Signal;HPM_P1;HPM_P2
2023/08/13 00:01:40;;;;;;;14.60;13.05;;;;;;;20.71;68.72;99589.59;5093730;28;20085;-58
2023/08/13 00:04:06;;;;;;;20.02;13.50;;;;;;;20.80;68.49;99595.78;5093714;28;20111;-59
2023/08/13 00:06:31;;;;;;;15.10;13.25;;;;;;;20.74;68.33;99588.38;5093433;28;20051;-58
2023/08/13 00:08:57;;;;;;;16.13;13.27;;;;;;;20.59;68.49;99574.88;5093028;28;20032;-60
2023/08/13 00:11:23;;;;;;;18.27;13.75;;;;;;;20.70;68.67;99587.91;5094126;28;20090;-59
2023/08/13 00:13:48;;;;;;;15.50;13.25;;;;;;;20.83;68.30;99602.72;5093404;28;20474;-56
2023/08/13 00:16:14;;;;;;;18.42;14.18;;;;;;;20.84;68.20;99593.50;5093291;28;20107;-60
2023/08/13 00:18:40;;;;;;;16.35;13.25;;;;;;;20.82;68.47;99595.59;5093191;28;20431;-58
2023/08/13 00:21:05;;;;;;;16.30;13.48;;;;;;;20.81;68.45;99585.75;5093467;28;20035;-61
2023/08/13 00:23:31;;;;;;;19.27;14.13;;;;;;;20.79;68.43;99583.19;5093621;28;20032;-60
2023/08/13 00:25:56;;;;;;;18.38;13.95;;;;;;;20.78;68.29;99586.94;5090515;28;20446;-61
2023/08/13 00:28:22;;;;;;;16.98;13.85;;;;;;;20.75;68.53;99577.31;5091006;28;20078;-60
2023/08/13 00:30:48;;;;;;;15.88;13.93;;;;;;;20.76;68.46;99592.59;5091637;28;20493;-59
2023/08/13 00:33:14;;;;;;;18.70;13.55;;;;;;;20.51;68.76;99548.63;5092126;28;20578;-68
2023/08/13 00:35:39;;;;;;;15.25;12.73;;;;;;;20.48;68.51;99544.41;5091977;28;20028;-61
2023/08/13 00:38:05;;;;;;;16.05;13.18;;;;;;;20.67;68.33;99573.88;5090950;28;20357;-58
2023/08/13 00:40:33;;;;;;;16.83;13.05;;;;;;;20.74;68.55;99572.06;5092047;28;20104;-57
2023/08/13 00:42:58;;;;;;;15.90;13.52;;;;;;;20.61;68.82;99565.44;5092766;28;20096;-58
2023/08/13 00:45:24;;;;;;;16.25;12.45;;;;;;;20.55;69.08;99563.53;5092883;28;20024;-59
2023/08/13 00:47:50;;;;;;;17.23;13.73;;;;;;;20.50;69.47;99555.97;5092571;28;20047;-59
2023/08/13 00:50:16;;;;;;;19.98;13.65;;;;;;;20.55;69.28;99571.69;5092266;28;20074;-57
2023/08/13 00:52:42;;;;;;;15.27;13.20;;;;;;;20.55;69.40;99573.56;5093023;28;20424;-57
2023/08/13 00:55:08;;;;;;;19.00;13.27;;;;;;;20.50;69.53;99564.13;5092365;28;20024;-58
2023/08/13 00:57:34;;;;;;;17.63;13.25;;;;;;;20.45;69.50;99557.59;5092839;28;20551;-58
2023/08/13 01:00:01;;;;;;;15.85;13.45;;;;;;;20.42;69.88;99561.53;5092589;28;20059;-59
2023/08/13 01:02:26;;;;;;;16.35;13.48;;;;;;;20.34;69.84;99553.50;5092440;28;20032;-58
2023/08/13 01:04:52;;;;;;;17.80;13.90;;;;;;;20.48;69.69;99571.63;5092394;28;20028;-58
2023/08/13 01:07:33;;;;;;;17.80;13.57;;;;;;;20.58;69.32;99567.75;5092300;28;20032;-58
2023/08/13 01:10:09;;;;;;;18.08;14.07;;;;;;;20.57;69.24;99568.78;5092188;28;20110;-60
2023/08/13 01:12:44;;;;;;;19.02;14.20;;;;;;;20.48;69.88;99566.19;5076736;28;20044;-60
2023/08/13 01:15:18;;;;;;;18.60;14.38;;;;;;;20.46;69.88;99565.53;5076430;28;20028;-59
2023/08/13 01:17:51;;;;;;;16.77;13.40;;;;;;;20.43;69.55;99555.06;5076532;28;20048;-60
2023/08/13 01:20:18;;;;;;;18.52;13.52;;;;;;;20.38;69.79;99560.25;5076114;28;20032;-61
2023/08/13 01:22:49;;;;;;;18.52;13.18;;;;;;;20.35;70.18;99549.75;5076747;28;20055;-59
2023/08/13 01:25:16;;;;;;;17.83;13.35;;;;;;;20.34;70.17;99561.66;5077703;28;20355;-58
2023/08/13 01:27:56;;;;;;;19.33;13.90;;;;;;;20.32;70.30;99553.69;5093261;28;20394;-57
2023/08/13 01:30:43;;;;;;;20.30;14.13;;;;;;;20.35;70.35;99557.91;5096824;28;20043;-53
2023/08/13 01:33:12;;;;;;;17.80;14.65;;;;;;;20.21;70.84;99551.50;5096091;28;20044;-58
2023/08/13 01:35:39;;;;;;;20.88;14.68;;;;;;;20.16;70.80;99552.09;5096321;28;20047;-58
2023/08/13 01:38:06;;;;;;;20.95;14.48;;;;;;;20.08;71.07;99544.88;5096535;28;20438;-57
2023/08/13 01:40:32;;;;;;;20.00;14.82;;;;;;;20.21;70.88;99556.94;5096098;28;20450;-59
2023/08/13 01:42:57;;;;;;;19.50;15.05;;;;;;;20.18;70.92;99552.72;5096225;28;20063;-53
2023/08/13 01:45:23;;;;;;;20.20;14.75;;;;;;;20.11;71.21;99548.25;5096063;28;20458;-56
2023/08/13 01:47:49;;;;;;;20.70;14.98;;;;;;;20.09;71.42;99553.91;5096576;28;20036;-55
2023/08/13 01:50:14;;;;;;;22.50;15.15;;;;;;;20.15;71.36;99549.56;5096605;28;20028;-56
2023/08/13 01:52:40;;;;;;;19.15;14.70;;;;;;;19.79;71.35;99486.06;5095908;28;20028;-56
2023/08/13 01:55:06;;;;;;;23.05;15.98;;;;;;;20.13;71.00;99544.31;5095679;28;20066;-59
2023/08/13 01:57:32;;;;;;;19.58;15.05;;;;;;;20.09;71.46;99540.31;5095962;28;20157;-58
2023/08/13 01:59:57;;;;;;;19.33;15.20;;;;;;;20.07;71.78;99547.81;5095662;28;20118;-59
2023/08/13 02:02:23;;;;;;;21.10;14.93;;;;;;;20.05;71.73;99544.44;5095401;28;20031;-58
2023/08/13 02:04:48;;;;;;;17.00;14.93;;;;;;;20.03;71.90;99544.63;5096039;28;20111;-68
2023/08/13 02:07:13;;;;;;;17.50;15.23;;;;;;;20.00;71.98;99550.47;5077815;28;20166;-59
2023/08/13 02:09:40;;;;;;;20.23;14.60;;;;;;;20.03;72.03;99535.66;5096170;28;20090;-59
2023/08/13 02:12:06;;;;;;;17.73;15.23;;;;;;;20.08;71.63;99533.19;5095533;28;20040;-57
2023/08/13 02:14:31;;;;;;;16.67;14.20;;;;;;;20.08;71.65;99533.19;5095194;28;20450;-55
2023/08/13 02:16:58;;;;;;;18.00;15.38;;;;;;;20.07;72.03;99536.94;5096041;28;20074;-62
2023/08/13 02:19:44;;;;;;;18.17;15.23;;;;;;;20.06;71.87;99532.53;5093391;28;20104;-59
2023/08/13 02:22:09;;;;;;;19.75;14.90;;;;;;;20.04;72.00;99534.63;5094778;28;20036;-57
2023/08/13 02:24:35;;;;;;;19.60;14.65;;;;;;;20.05;72.05;99528.16;5094529;28;20416;-60
2023/08/13 02:27:00;;;;;;;18.23;15.27;;;;;;;20.06;72.36;99543.41;5095283;28;20024;-57
2023/08/13 02:29:26;;;;;;;19.00;15.25;;;;;;;20.11;72.09;99535.53;5095590;28;20043;-59
2023/08/13 02:31:51;;;;;;;21.48;14.57;;;;;;;20.22;71.35;99543.16;5095284;28;20027;-57
2023/08/13 02:34:17;;;;;;;22.85;15.57;;;;;;;20.24;71.49;99534.81;5095606;28;20366;-58
2023/08/13 02:36:42;;;;;;;18.98;14.68;;;;;;;20.31;70.92;99521.28;5095266;28;20076;-57
2023/08/13 02:39:08;;;;;;;18.38;14.60;;;;;;;20.42;70.56;99522.63;5094745;28;20028;-59
2023/08/13 02:41:33;;;;;;;19.48;14.65;;;;;;;20.53;70.21;99524.81;5092019;28;20036;-60
2023/08/13 02:43:59;;;;;;;19.83;15.02;;;;;;;;;;5094982;28;20035;-59
2023/08/13 02:46:26;;;;;;;15.90;14.23;;;;;;;20.71;69.72;99529.75;5095255;28;20078;-58
2023/08/13 02:48:56;;;;;;;19.98;13.82;;;;;;;20.58;69.62;99499.75;5094923;28;20085;-67
2023/08/13 02:51:23;;;;;;;22.45;15.35;;;;;;;20.83;69.54;99529.25;5094925;28;20119;-60
2023/08/13 02:53:49;;;;;;;20.08;14.50;;;;;;;20.90;69.17;99521.97;5094349;28;20024;-58
2023/08/13 02:56:15;;;;;;;19.33;14.32;;;;;;;21.05;68.86;99530.00;5094341;28;20459;-56
2023/08/13 02:58:41;;;;;;;26.00;14.43;;;;;;;21.16;68.36;99515.00;5091800;28;20032;-58
2023/08/13 03:01:07;;;;;;;18.20;14.63;;;;;;;21.15;68.47;99519.63;5094308;28;20039;-55
2023/08/13 03:03:32;;;;;;;22.52;14.07;;;;;;;21.31;67.74;99523.03;5094502;28;20059;-57
2023/08/13 03:05:58;;;;;;;21.00;15.38;;;;;;;21.30;67.47;99516.75;5094593;28;20032;-59
2023/08/13 03:08:23;;;;;;;20.92;14.95;;;;;;;21.39;67.54;99525.59;5095158;28;20032;-57
2023/08/13 03:10:50;;;;;;;21.17;14.18;;;;;;;21.36;67.54;99515.94;5094681;28;20080;-57
2023/08/13 03:13:15;;;;;;;25.83;15.32;;;;;;;21.42;66.97;99510.72;5094382;28;20046;-57
2023/08/13 03:15:41;;;;;;;20.08;14.05;;;;;;;21.37;67.55;99522.25;5094801;28;20111;-58
2023/08/13 03:18:07;;;;;;;20.02;14.38;;;;;;;21.43;67.16;99521.44;5093604;28;20028;-58
2023/08/13 03:20:33;;;;;;;22.98;15.02;;;;;;;21.43;67.34;99532.31;5094176;28;20036;-57
2023/08/13 03:22:59;;;;;;;18.88;14.85;;;;;;;21.43;66.87;99526.03;5093980;28;20020;-59
2023/08/13 03:25:24;;;;;;;20.65;14.70;;;;;;;21.28;67.42;99513.41;5076415;28;20358;-57
2023/08/13 03:27:50;;;;;;;20.17;14.52;;;;;;;21.40;67.70;99519.13;5093851;28;20112;-56
2023/08/13 03:30:15;;;;;;;18.75;14.75;;;;;;;21.51;67.49;99537.59;5094031;28;20115;-59
2023/08/13 03:32:41;;;;;;;16.38;13.80;;;;;;;21.48;67.08;99512.66;5094436;28;20032;-57
2023/08/13 03:35:07;;;;;;;21.50;13.88;;;;;;;21.59;67.03;99513.97;5093470;28;20031;-59
2023/08/13 03:37:32;;;;;;;21.55;14.75;;;;;;;21.61;67.08;99522.75;5094239;28;20039;-60
2023/08/13 03:39:58;;;;;;;20.02;14.88;;;;;;;21.60;66.85;99515.63;5093194;28;20124;-60
2023/08/13 03:42:23;;;;;;;20.75;14.98;;;;;;;21.62;67.06;99514.38;5094226;28;20389;-59
2023/08/13 03:44:49;;;;;;;21.50;16.50;;;;;;;21.78;66.40;99526.00;5094170;28;20027;-59
2023/08/13 03:47:14;;;;;;;22.73;17.13;;;;;;;21.85;66.22;99529.56;5093737;28;20093;-60
2023/08/13 03:49:40;;;;;;;22.58;16.40;;;;;;;21.88;66.13;99529.16;5093655;28;20024;-57
2023/08/13 03:52:06;;;;;;;24.38;16.40;;;;;;;22.06;65.27;99533.19;5093971;28;20552;-57
2023/08/13 03:54:31;;;;;;;23.27;16.10;;;;;;;22.13;65.47;99544.94;5094012;28;20032;-60
2023/08/13 03:56:57;;;;;;;21.80;15.55;;;;;;;22.18;65.34;99539.69;5093767;28;20028;-58
2023/08/13 03:59:23;;;;;;;16.95;15.15;;;;;;;22.32;65.00;99534.28;5093171;28;20438;-58
2023/08/13 04:01:48;;;;;;;26.27;16.33;;;;;;;22.49;64.53;99535.56;5093473;28;20028;-57
2023/08/13 04:04:14;;;;;;;19.85;16.20;;;;;;;22.58;63.66;99514.38;5092893;28;20050;-58
2023/08/13 04:06:39;;;;;;;22.58;16.20;;;;;;;23.09;62.50;99534.66;5092950;28;20035;-58
2023/08/13 04:09:05;;;;;;;19.70;16.13;;;;;;;23.41;61.38;99549.56;5092971;28;20367;-60
2023/08/13 04:11:31;;;;;;;19.80;16.15;;;;;;;23.64;60.66;99530.75;5093430;28;20046;-59
2023/08/13 04:13:57;;;;;;;20.52;15.77;;;;;;;24.04;59.80;99523.41;5093614;28;20036;-60
2023/08/13 04:16:22;;;;;;;23.30;16.05;;;;;;;24.45;58.30;99530.28;5093551;28;20028;-59
2023/08/13 04:18:50;;;;;;;23.83;17.25;;;;;;;24.68;57.26;99525.22;5093121;28;20433;-58
2023/08/13 04:21:16;;;;;;;22.08;16.98;;;;;;;24.73;56.77;99511.72;5092708;28;20197;-56
2023/08/13 04:23:41;;;;;;;22.67;17.73;;;;;;;25.25;55.83;99525.09;5093330;28;20511;-56
2023/08/13 04:26:07;;;;;;;23.45;16.90;;;;;;;25.63;54.68;99524.06;5092811;28;20028;-55
2023/08/13 04:28:33;;;;;;;25.50;16.92;;;;;;;25.62;54.45;99525.13;5093186;28;20031;-57
2023/08/13 04:30:59;;;;;;;21.65;17.15;;;;;;;25.37;54.96;99516.97;5093096;28;20032;-59
2023/08/13 04:33:25;;;;;;;18.15;16.10;;;;;;;25.32;55.25;99517.66;5093212;28;20063;-58
2023/08/13 04:35:54;;;;;;;21.73;18.17;;;;;;;25.20;55.62;99544.13;5091959;28;20059;-61
2023/08/13 04:38:21;;;;;;;30.30;17.90;;;;;;;24.43;56.39;99471.34;5092357;28;20035;-57
2023/08/13 04:40:49;;;;;;;20.15;17.80;;;;;;;24.70;57.14;99539.53;5092986;28;20036;-58
2023/08/13 04:43:15;;;;;;;25.33;18.60;;;;;;;24.88;56.38;99525.09;5092781;28;20028;-57
2023/08/13 04:45:46;;;;;;;21.15;18.05;;;;;;;25.63;54.16;99513.09;5092150;28;20027;-58
2023/08/13 04:48:11;;;;;;;20.90;15.80;;;;;;;27.00;50.01;99469.56;5092448;28;20427;-58
2023/08/13 04:50:37;;;;;;;19.00;16.52;;;;;;;28.13;47.49;99498.44;5092621;28;20059;-59
2023/08/13 04:53:02;;;;;;;24.42;17.05;;;;;;;28.49;46.32;99493.59;5092664;28;20031;-56
2023/08/13 04:55:28;;;;;;;16.55;14.90;;;;;;;28.64;45.57;99489.38;5093003;28;20040;-68
2023/08/13 04:57:53;;;;;;;20.90;14.50;;;;;;;29.57;43.41;99498.13;5092724;28;20032;-58
2023/08/13 05:00:19;;;;;;;20.25;14.70;;;;;;;30.56;41.48;99486.94;5092596;28;20032;-58
2023/08/13 05:02:44;;;;;;;21.23;15.05;;;;;;;31.57;39.41;99499.09;5082937;28;20075;-61
2023/08/13 05:05:10;;;;;;;20.15;13.77;;;;;;;32.32;37.53;99487.63;5074929;28;20039;-55
2023/08/13 05:07:36;;;;;;;17.48;14.13;;;;;;;32.01;38.29;99497.84;5091953;28;20059;-56
2023/08/13 05:10:01;;;;;;;15.15;13.13;;;;;;;31.47;38.81;99500.75;5092315;28;20101;-55
2023/08/13 05:12:29;;;;;;;14.93;11.57;;;;;;;31.20;39.20;99489.84;5092515;28;20487;-68
2023/08/13 05:14:54;;;;;;;16.20;11.40;;;;;;;32.16;37.48;99497.84;5092630;28;20166;-58
2023/08/13 05:17:21;;;;;;;12.95;10.75;;;;;;;34.29;33.79;99497.16;5092026;28;20377;-57
2023/08/13 05:19:47;;;;;;;16.65;12.55;;;;;;;35.89;30.32;99480.63;5092776;28;20443;-58
2023/08/13 05:22:14;;;;;;;17.45;11.63;;;;;;;36.68;29.21;99479.06;5074867;28;20032;-56
2023/08/13 05:24:39;;;;;;;13.32;11.32;;;;;;;38.37;26.77;99480.44;5092756;28;20029;-58
2023/08/13 05:27:05;;;;;;;13.45;10.52;;;;;;;38.47;26.85;99482.16;5092498;28;20038;-56
2023/08/13 05:29:31;;;;;;;14.85;10.25;;;;;;;38.62;26.30;99481.75;5092032;28;20040;-57
2023/08/13 05:31:56;;;;;;;9.60;8.52;;;;;;;38.61;25.77;99480.09;5092709;28;20381;-57
2023/08/13 05:34:22;;;;;;;10.88;8.93;;;;;;;37.09;27.62;99473.81;5092280;28;20030;-57
2023/08/13 05:36:48;;;;;;;10.77;9.05;;;;;;;35.55;29.99;99474.16;5092341;28;20378;-55
2023/08/13 05:39:14;;;;;;;13.43;8.90;;;;;;;34.27;32.33;99478.00;5092411;28;20046;-57
2023/08/13 05:41:40;;;;;;;11.32;9.00;;;;;;;34.26;32.22;99475.53;5092053;28;20062;-58
2023/08/13 05:44:05;;;;;;;11.88;8.38;;;;;;;36.54;28.43;99461.47;5092546;28;20458;-60
2023/08/13 05:46:32;;;;;;;11.63;7.88;;;;;;;36.63;28.38;99471.63;5092098;28;20110;-62
2023/08/13 05:48:57;;;;;;;10.30;7.57;;;;;;;34.98;29.83;99480.38;5092985;28;20043;-53
2023/08/13 05:51:23;;;;;;;10.18;6.47;;;;;;;33.34;32.74;99473.00;5091748;28;20028;-55
2023/08/13 05:53:48;;;;;;;9.90;7.40;;;;;;;31.88;34.91;99443.84;5092144;28;20447;-65
2023/08/13 05:56:14;;;;;;;11.57;8.13;;;;;;;31.16;37.38;99480.38;5074432;28;20332;-51
2023/08/13 05:58:39;;;;;;;11.55;7.88;;;;;;;30.40;38.84;99463.88;5095372;28;20036;-53
2023/08/13 06:01:05;;;;;;;14.40;8.60;;;;;;;29.59;39.74;99474.69;5096235;28;20027;-56
2023/08/13 06:03:32;;;;;;;10.82;7.80;;;;;;;28.53;41.91;99474.63;5096533;28;20028;-55
2023/08/13 06:05:58;;;;;;;9.23;7.20;;;;;;;27.84;43.49;99468.22;5096037;28;20028;-54
2023/08/13 06:08:24;;;;;;;9.40;7.07;;;;;;;27.26;44.33;99431.63;5095315;28;20043;-52
2023/08/13 06:10:49;;;;;;;11.10;7.60;;;;;;;27.07;45.54;99473.84;5095431;28;20055;-53
2023/08/13 06:13:15;;;;;;;14.35;7.30;;;;;;;26.79;45.53;99467.19;5091569;28;20096;-55
2023/08/13 06:15:41;;;;;;;8.73;6.20;;;;;;;27.15;43.97;99460.81;5095709;28;20103;-54
2023/08/13 06:18:06;;;;;;;9.55;5.40;;;;;;;27.68;41.73;99467.13;5095857;28;20442;-55
2023/08/13 06:20:32;;;;;;;8.65;5.45;;;;;;;27.48;42.46;99467.50;5095821;28;20047;-58
2023/08/13 06:22:58;;;;;;;10.30;5.50;;;;;;;28.30;40.74;99459.94;5095269;28;20350;-54
2023/08/13 06:25:23;;;;;;;8.07;5.07;;;;;;;29.76;37.52;99457.22;5095203;28;20031;-52
2023/08/13 06:27:49;;;;;;;7.18;5.53;;;;;;;31.01;35.41;99454.31;5094716;28;20127;-53
2023/08/13 06:30:16;;;;;;;9.60;5.05;;;;;;;32.18;33.46;99464.31;5095341;28;20106;-50
2023/08/13 06:32:42;;;;;;;8.50;5.15;;;;;;;32.97;31.89;99452.91;5095116;28;20020;-54
2023/08/13 06:35:08;;;;;;;7.95;4.88;;;;;;;33.20;31.39;99461.69;5095031;28;20027;-54
2023/08/13 06:37:33;;;;;;;7.28;4.80;;;;;;;32.62;32.11;99471.28;5095288;28;20408;-53
2023/08/13 06:39:59;;;;;;;6.75;4.70;;;;;;;31.42;33.54;99477.75;5095362;28;20032;-56
2023/08/13 06:42:24;;;;;;;5.55;5.05;;;;;;;30.44;35.83;99473.31;5095151;28;20043;-51
2023/08/13 06:44:50;;;;;;;6.70;4.53;;;;;;;29.99;36.85;99467.09;5095145;28;20028;-55
2023/08/13 06:47:15;;;;;;;9.25;5.40;;;;;;;29.66;37.54;99477.25;5094442;28;20144;-51
2023/08/13 06:49:41;;;;;;;9.70;5.95;;;;;;;29.04;38.84;99469.06;5094528;28;20370;-54
2023/08/13 06:52:07;;;;;;;6.70;5.55;;;;;;;28.42;40.82;99484.63;5094576;28;20028;-54
2023/08/13 06:54:33;;;;;;;10.90;6.00;;;;;;;28.14;40.51;99478.09;5095215;28;20348;-58
2023/08/13 06:56:59;;;;;;;9.77;5.22;;;;;;;28.27;40.18;99474.22;5076845;28;20028;-51
2023/08/13 06:59:24;;;;;;;8.68;5.10;;;;;;;28.89;38.73;99471.59;5094476;28;20276;-50
2023/08/13 07:01:50;;;;;;;6.97;4.80;;;;;;;29.44;37.52;99471.78;5094472;28;20370;-53
2023/08/13 07:04:16;;;;;;;10.75;4.93;;;;;;;29.44;37.11;99491.09;5093684;28;20156;-50
2023/08/13 07:06:42;;;;;;;6.57;4.68;;;;;;;28.87;37.83;99507.69;5094461;28;20028;-53
2023/08/13 07:09:07;;;;;;;9.82;4.45;;;;;;;27.86;39.83;99493.56;5093954;28;20048;-52
2023/08/13 07:11:34;;;;;;;6.43;4.30;;;;;;;26.88;41.71;99508.03;5094491;28;20031;-52
2023/08/13 07:13:59;;;;;;;7.63;4.57;;;;;;;25.86;44.33;99505.19;5094583;28;20050;-54
2023/08/13 07:16:25;;;;;;;7.38;4.03;;;;;;;25.23;44.98;99521.75;5094008;28;20339;-54
2023/08/13 07:18:50;;;;;;;6.60;3.78;;;;;;;24.76;45.80;99514.88;5094068;28;20082;-57
2023/08/13 07:21:16;;;;;;;8.45;3.45;;;;;;;24.48;46.73;99518.88;5094177;28;20439;-56
2023/08/13 07:23:42;;;;;;;5.20;3.38;;;;;;;24.31;47.33;99521.31;5084992;28;20024;-52
2023/08/13 07:26:07;;;;;;;8.95;3.30;;;;;;;24.33;47.16;99521.94;5086188;28;20040;-52
2023/08/13 07:28:34;;;;;;;10.10;4.22;;;;;;;24.19;46.71;99463.75;5093959;28;20443;-54
2023/08/13 07:31:03;;;;;;;3.72;3.35;;;;;;;24.43;45.48;99499.56;5093134;28;20035;-56
2023/08/13 07:33:33;;;;;;;5.85;3.60;;;;;;;24.80;45.06;99524.28;5093072;28;20422;-56
2023/08/13 07:36:03;;;;;;;8.48;3.00;;;;;;;24.95;44.04;99534.06;5091528;28;20047;-53
2023/08/13 07:38:28;;;;;;;11.90;3.13;;;;;;;24.71;44.61;99531.09;5091302;28;20435;-56
2023/08/13 07:40:57;;;;;;;8.73;3.08;;;;;;;24.45;44.89;99523.94;5091494;28;20035;-54
2023/08/13 07:43:24;;;;;;;3.60;2.97;;;;;;;24.04;45.86;99520.66;5090994;28;20115;-58
2023/08/13 07:45:51;;;;;;;4.90;3.08;;;;;;;23.57;46.77;99488.94;5088293;28;20478;-55
2023/08/13 07:48:17;;;;;;;5.30;3.20;;;;;;;23.47;47.51;99524.09;5057702;28;20054;-54
2023/08/13 07:50:44;;;;;;;7.63;2.92;;;;;;;23.48;47.85;99532.06;5082842;28;20024;-58
2023/08/13 07:53:09;;;;;;;5.45;2.92;;;;;;;23.37;48.23;99522.63;5086146;28;20032;-55
2023/08/13 07:55:35;;;;;;;4.90;3.20;;;;;;;23.35;48.68;99540.31;5094152;28;20036;-55
2023/08/13 07:58:01;;;;;;;7.63;3.05;;;;;;;23.24;48.80;99541.78;5093733;28;20031;-54
2023/08/13 08:00:26;;;;;;;5.95;3.13;;;;;;;23.09;49.18;99534.66;5093545;28;20036;-56
2023/08/13 08:02:53;;;;;;;4.07;2.80;;;;;;;23.05;49.36;99536.16;5093771;28;20032;-53
2023/08/13 08:05:20;;;;;;;3.53;3.08;;;;;;;22.99;49.86;99531.53;5093384;28;20092;-53
2023/08/13 08:07:45;;;;;;;4.53;2.55;;;;;;;22.89;50.53;99533.84;5093171;28;20060;-52
2023/08/13 08:10:12;;;;;;;3.30;2.90;;;;;;;22.96;50.72;99547.50;5093777;28;20126;-53
2023/08/13 08:12:37;;;;;;;3.88;2.92;;;;;;;23.04;50.49;99536.38;5094041;28;20044;-52
2023/08/13 08:15:06;;;;;;;5.50;3.00;;;;;;;23.09;49.91;99547.50;5093001;28;20039;-53
2023/08/13 08:17:33;;;;;;;3.58;2.80;;;;;;;23.00;50.79;99540.56;5093449;28;20332;-53
2023/08/13 08:19:59;;;;;;;5.45;2.90;;;;;;;23.21;50.04;99536.75;5092833;28;20442;-55
2023/08/13 08:22:26;;;;;;;4.55;2.67;;;;;;;23.68;49.01;99541.25;5092809;28;20107;-52
2023/08/13 08:24:52;;;;;;;7.05;2.80;;;;;;;24.09;47.91;99545.44;5093526;28;20031;-52
2023/08/13 08:27:17;;;;;;;5.53;2.80;;;;;;;24.16;47.86;99540.78;5093376;28;20030;-52
2023/08/13 08:29:43;;;;;;;5.38;2.72;;;;;;;24.03;47.72;99546.34;5093103;28;20035;-54
2023/08/13 08:32:08;;;;;;;5.28;3.00;;;;;;;23.74;48.65;99556.75;5093628;28;20082;-53
2023/08/13 08:34:34;;;;;;;6.43;3.05;;;;;;;23.36;49.88;99548.28;5092721;28;20123;-54
2023/08/13 08:37:00;;;;;;;4.80;3.13;;;;;;;23.07;50.80;99553.16;5089106;28;20544;-56
2023/08/13 08:39:25;;;;;;;8.27;3.17;;;;;;;22.79;51.47;99567.06;5093105;28;20397;-56
2023/08/13 08:41:55;;;;;;;4.43;3.17;;;;;;;22.70;52.36;99577.34;5092887;28;20405;-50
2023/08/13 08:44:22;;;;;;;6.30;3.38;;;;;;;22.49;52.70;99568.31;5092643;28;20028;-55
2023/08/13 08:46:53;;;;;;;8.27;3.47;;;;;;;22.52;52.97;99569.75;5093241;28;20039;-57
2023/08/13 08:49:21;;;;;;;3.80;3.40;;;;;;;22.51;53.08;99570.81;5092486;28;20347;-53
2023/08/13 08:51:48;;;;;;;4.15;3.22;;;;;;;22.65;52.94;99579.84;5089542;28;20031;-55
2023/08/13 08:54:15;;;;;;;8.02;4.15;;;;;;;22.79;52.42;99586.16;5092987;28;20476;-51
2023/08/13 08:56:40;;;;;;;8.07;3.70;;;;;;;22.83;52.76;99578.38;5092568;28;20020;-59
2023/08/13 08:59:07;;;;;;;5.75;3.80;;;;;;;22.75;52.51;99566.63;5092401;28;20370;-53
2023/08/13 09:01:33;;;;;;;6.13;3.55;;;;;;;22.75;52.64;99572.09;5092476;28;20032;-53
2023/08/13 09:03:59;;;;;;;5.28;4.30;;;;;;;22.90;52.36;99579.22;5092837;28;20492;-56
2023/08/13 09:06:53;;;;;;;5.30;4.03;;;;;;;23.07;52.07;99575.00;5074926;28;20078;-56
2023/08/13 09:09:19;;;;;;;5.80;3.35;;;;;;;23.03;52.15;99571.00;5092581;28;20059;-56
2023/08/13 09:11:48;;;;;;;8.27;3.45;;;;;;;23.34;51.35;99577.69;5075152;28;20040;-55
2023/08/13 09:14:15;;;;;;;4.45;3.22;;;;;;;23.68;50.55;99579.50;5092639;28;20024;-51
2023/08/13 09:16:54;;;;;;;9.55;3.42;;;;;;;23.94;49.63;99578.53;5092300;28;20024;-53
2023/08/13 09:19:22;;;;;;;4.38;3.20;;;;;;;23.93;49.59;99580.44;5092755;28;20096;-54
2023/08/13 09:21:50;;;;;;;6.82;3.03;;;;;;;23.79;49.99;99578.81;5092624;28;20035;-56
2023/08/13 09:24:17;;;;;;;6.93;2.97;;;;;;;23.56;50.47;99590.28;5092275;28;20397;-55
2023/08/13 09:26:43;;;;;;;7.35;2.78;;;;;;;23.31;50.61;99594.53;5092454;28;20032;-61
2023/08/13 09:29:08;;;;;;;5.43;2.40;;;;;;;22.94;51.21;99591.41;5092984;28;20112;-54
2023/08/13 09:31:35;;;;;;;2.70;2.50;;;;;;;22.74;51.95;99600.44;5092215;28;20035;-53
2023/08/13 09:34:01;;;;;;;5.50;2.65;;;;;;;22.65;52.39;99593.50;5096256;28;20032;-55
2023/08/13 09:36:30;;;;;;;5.18;2.42;;;;;;;22.60;52.44;99590.56;5095952;28;20151;-54
2023/08/13 09:38:56;;;;;;;4.95;2.75;;;;;;;22.71;52.24;99594.56;5096618;28;20032;-56
2023/08/13 09:41:24;;;;;;;6.00;2.35;;;;;;;22.84;51.90;99612.81;5096591;28;20034;-50
2023/08/13 09:43:57;;;;;;;3.47;2.40;;;;;;;22.87;51.50;99602.31;5096734;28;20040;-53
2023/08/13 09:46:27;;;;;;;3.53;2.42;;;;;;;22.79;51.91;99611.56;5096419;28;20063;-53
2023/08/13 09:48:56;;;;;;;3.22;2.65;;;;;;;22.74;52.25;99622.28;5096467;28;20042;-55
2023/08/13 09:51:32;;;;;;;2.67;2.47;;;;;;;22.73;52.24;99608.81;5095882;28;20107;-54
2023/08/13 09:54:07;;;;;;;5.95;2.60;;;;;;;22.58;52.25;99620.78;5095869;28;20120;-55
2023/08/13 09:56:34;;;;;;;5.47;2.80;;;;;;;22.54;52.73;99624.13;5095388;28;20433;-50
2023/08/13 09:59:00;;;;;;;4.28;3.15;;;;;;;22.48;52.43;99603.97;5095721;28;20114;-54
2023/08/13 10:01:26;;;;;;;4.80;3.05;;;;;;;22.37;52.48;99580.84;5095987;28;20040;-51
2023/08/13 10:03:52;;;;;;;3.78;2.85;;;;;;;22.61;52.22;99614.06;5096051;28;20035;-55
2023/08/13 10:06:19;;;;;;;5.05;3.15;;;;;;;22.60;52.41;99606.91;5096037;28;20520;-55
2023/08/13 10:08:45;;;;;;;4.38;3.53;;;;;;;22.54;52.68;99608.59;5096372;28;20414;-59
2023/08/13 10:11:13;;;;;;;4.38;3.05;;;;;;;22.25;53.00;99568.88;5095839;28;20036;-55
2023/08/13 10:13:39;;;;;;;3.88;3.53;;;;;;;22.53;53.18;99608.81;5094958;28;20134;-55
2023/08/13 10:16:06;;;;;;;5.95;3.53;;;;;;;22.67;52.40;99599.59;5094702;28;20104;-55
2023/08/13 10:18:33;;;;;;;3.38;2.92;;;;;;;22.75;52.32;99590.34;5095226;28;20065;-56
2023/08/13 10:20:58;;;;;;;5.47;3.53;;;;;;;22.71;52.58;99600.84;5095803;28;20039;-55
2023/08/13 10:23:26;;;;;;;5.45;3.75;;;;;;;22.56;53.14;99622.88;5095552;28;20036;-54
2023/08/13 10:25:56;;;;;;;5.63;3.80;;;;;;;22.29;53.35;99594.69;5095730;28;20032;-53
2023/08/13 10:28:23;;;;;;;4.85;4.13;;;;;;;22.14;54.08;99598.41;5095467;28;20038;-54
2023/08/13 10:30:49;;;;;;;4.90;3.88;;;;;;;21.78;54.77;99572.31;5095035;28;20024;-55
2023/08/13 10:33:15;;;;;;;6.03;3.72;;;;;;;21.93;55.02;99619.31;5094879;28;20028;-53
2023/08/13 10:35:42;;;;;;;7.05;4.55;;;;;;;21.90;55.42;99619.72;5095482;28;20089;-53
2023/08/13 10:38:08;;;;;;;4.82;3.83;;;;;;;21.89;55.50;99615.31;5095050;28;20036;-52
2023/08/13 10:40:35;;;;;;;7.22;4.25;;;;;;;21.84;55.60;99617.81;5095274;28;20081;-53
2023/08/13 10:43:04;;;;;;;7.25;5.07;;;;;;;21.81;56.43;99623.69;5094604;28;20020;-55
2023/08/13 10:45:35;;;;;;;4.65;4.25;;;;;;;21.58;57.94;99627.50;5094858;28;20032;-52
2023/08/13 10:48:02;;;;;;;8.32;4.97;;;;;;;21.32;59.37;99642.66;5094579;28;20054;-53
2023/08/13 10:50:33;;;;;;;4.40;3.83;;;;;;;21.25;60.43;99644.50;5093942;28;20222;-60
2023/08/13 10:53:12;;;;;;;8.52;4.38;;;;;;;21.18;60.28;99646.31;5092625;28;20024;-53
2023/08/13 10:55:40;;;;;;;10.50;4.65;;;;;;;21.02;61.61;99636.56;5094922;28;20195;-54
2023/08/13 10:58:06;;;;;;;5.18;4.57;;;;;;;20.89;62.16;99643.59;5095102;28;20067;-55
2023/08/13 11:00:41;;;;;;;6.00;4.50;;;;;;;20.98;62.13;99638.00;5094587;28;20028;-51
2023/08/13 11:03:19;;;;;;;4.35;4.05;;;;;;;21.07;61.45;99640.38;5094722;28;20474;-51
2023/08/13 11:05:45;;;;;;;6.68;4.30;;;;;;;20.94;62.12;99640.25;5095143;28;20110;-53
2023/08/13 11:08:22;;;;;;;6.32;4.60;;;;;;;21.01;62.49;99643.91;5078413;28;20059;-55
2023/08/13 11:10:50;;;;;;;5.07;4.28;;;;;;;20.90;62.17;99652.56;5094907;28;20044;-56
2023/08/13 11:13:18;;;;;;;5.97;4.40;;;;;;;20.93;61.90;99639.44;5094754;28;20043;-53
2023/08/13 11:15:52;;;;;;;7.95;4.90;;;;;;;21.12;61.70;99649.84;5094550;28;20024;-53
2023/08/13 11:18:18;;;;;;;5.18;4.68;;;;;;;21.02;61.95;99650.16;5094677;28;20031;-54
2023/08/13 11:20:45;;;;;;;6.43;4.57;;;;;;;20.88;62.37;99625.59;5094470;28;20034;-48
2023/08/13 11:23:12;;;;;;;8.18;5.25;;;;;;;21.09;62.02;99648.34;5094297;28;20032;-53